sensor_id;sensor_type;location;lat;lon;timestamp;temperature;humidity
28552;DHT22;15752;49.560;8.708;2023-04-03T00:01:39;9.80;98.40
28552;DHT22;15752;49.560;8.708;2023-04-03T00:04:08;9.60;98.50
28552;DHT22;15752;49.560;8.708;2023-04-03T00:06:37;9.80;98.50
28552;DHT22;15752;49.560;8.708;2023-04-03T00:09:05;9.50;98.40
28552;DHT22;15752;49.560;8.708;2023-04-03T00:11:36;9.40;98.40
28552;DHT22;15752;49.560;8.708;2023-04-03T00:14:04;9.40;98.40
28552;DHT22;15752;49.560;8.708;2023-04-03T00:16:33;9.40;98.30
28552;DHT22;15752;49.560;8.708;2023-04-03T00:19:01;9.50;98.30
28552;DHT22;15752;49.560;8.708;2023-04-03T00:21:31;9.30;98.30
28552;DHT22;15752;49.560;8.708;2023-04-03T00:23:59;9.30;98.60
28552;DHT22;15752;49.560;8.708;2023-04-03T00:26:28;9.30;98.70
28552;DHT22;15752;49.560;8.708;2023-04-03T00:28:56;9.40;98.40
28552;DHT22;15752;49.560;8.708;2023-04-03T00:31:25;9.20;98.20
28552;DHT22;15752;49.560;8.708;2023-04-03T00:33:53;9.20;98.20
28552;DHT22;15752;49.560;8.708;2023-04-03T00:36:22;9.40;98.40
28552;DHT22;15752;49.560;8.708;2023-04-03T00:38:52;9.20;98.40
28552;DHT22;15752;49.560;8.708;2023-04-03T00:41:20;9.10;98.40
28552;DHT22;15752;49.560;8.708;2023-04-03T00:43:49;9.10;98.50
28552;DHT22;15752;49.560;8.708;2023-04-03T00:46:17;9.20;98.40
28552;DHT22;15752;49.560;8.708;2023-04-03T00:48:47;9.00;98.40
28552;DHT22;15752;49.560;8.708;2023-04-03T00:51:19;9.10;98.60
28552;DHT22;15752;49.560;8.708;2023-04-03T00:53:56;9.00;98.60
28552;DHT22;15752;49.560;8.708;2023-04-03T00:56:27;9.20;98.70
28552;DHT22;15752;49.560;8.708;2023-04-03T00:58:59;9.20;98.70
28552;DHT22;15752;49.560;8.708;2023-04-03T01:01:30;8.90;98.50
28552;DHT22;15752;49.560;8.708;2023-04-03T01:03:59;8.90;98.50
28552;DHT22;15752;49.560;8.708;2023-04-03T01:06:32;9.10;98.50
28552;DHT22;15752;49.560;8.708;2023-04-03T01:09:09;9.10;98.60
28552;DHT22;15752;49.560;8.708;2023-04-03T01:11:38;8.80;98.20
28552;DHT22;15752;49.560;8.708;2023-04-03T01:14:06;8.80;98.30
28552;DHT22;15752;49.560;8.708;2023-04-03T01:16:35;8.70;98.40
28552;DHT22;15752;49.560;8.708;2023-04-03T01:19:06;8.90;98.50
28552;DHT22;15752;49.560;8.708;2023-04-03T01:21:56;9.00;98.50
28552;DHT22;15752;49.560;8.708;2023-04-03T01:24:35;8.90;98.40
28552;DHT22;15752;49.560;8.708;2023-04-03T01:27:10;8.60;98.50
28552;DHT22;15752;49.560;8.708;2023-04-03T01:29:40;8.90;98.90
28552;DHT22;15752;49.560;8.708;2023-04-03T01:32:12;8.90;98.70
28552;DHT22;15752;49.560;8.708;2023-04-03T01:34:41;8.60;98.60
28552;DHT22;15752;49.560;8.708;2023-04-03T01:37:10;8.80;98.50
28552;DHT22;15752;49.560;8.708;2023-04-03T01:39:39;8.50;98.50
28552;DHT22;15752;49.560;8.708;2023-04-03T01:42:07;8.70;98.60
28552;DHT22;15752;49.560;8.708;2023-04-03T01:44:39;8.70;98.50
28552;DHT22;15752;49.560;8.708;2023-04-03T01:47:08;8.40;98.20
28552;DHT22;15752;49.560;8.708;2023-04-03T01:49:39;8.40;98.60
28552;DHT22;15752;49.560;8.708;2023-04-03T01:52:08;8.40;98.30
28552;DHT22;15752;49.560;8.708;2023-04-03T01:54:37;8.60;98.50
28552;DHT22;15752;49.560;8.708;2023-04-03T01:57:05;8.20;98.40
28552;DHT22;15752;49.560;8.708;2023-04-03T01:59:34;8.40;98.50
28552;DHT22;15752;49.560;8.708;2023-04-03T02:02:03;8.30;98.40
28552;DHT22;15752;49.560;8.708;2023-04-03T02:04:31;8.50;98.50
28552;DHT22;15752;49.560;8.708;2023-04-03T02:07:01;8.20;98.80
28552;DHT22;15752;49.560;8.708;2023-04-03T02:09:29;8.30;98.40
28552;DHT22;15752;49.560;8.708;2023-04-03T02:11:58;8.20;98.60
28552;DHT22;15752;49.560;8.708;2023-04-03T02:14:26;8.20;98.40
28552;DHT22;15752;49.560;8.708;2023-04-03T02:16:54;8.20;98.50
28552;DHT22;15752;49.560;8.708;2023-04-03T02:19:23;8.10;98.50
28552;DHT22;15752;49.560;8.708;2023-04-03T02:21:51;8.10;98.50
28552;DHT22;15752;49.560;8.708;2023-04-03T02:24:21;8.10;98.50
28552;DHT22;15752;49.560;8.708;2023-04-03T02:26:50;8.10;98.50
28552;DHT22;15752;49.560;8.708;2023-04-03T02:29:18;8.10;98.70
28552;DHT22;15752;49.560;8.708;2023-04-03T02:31:47;8.00;98.50
28552;DHT22;15752;49.560;8.708;2023-04-03T02:34:16;8.00;98.50
28552;DHT22;15752;49.560;8.708;2023-04-03T02:36:46;8.00;98.70
28552;DHT22;15752;49.560;8.708;2023-04-03T02:39:15;8.00;98.60
28552;DHT22;15752;49.560;8.708;2023-04-03T02:41:45;7.90;98.70
28552;DHT22;15752;49.560;8.708;2023-04-03T02:44:20;8.10;98.70
28552;DHT22;15752;49.560;8.708;2023-04-03T02:46:48;7.90;98.40
28552;DHT22;15752;49.560;8.708;2023-04-03T02:49:17;8.10;98.60
28552;DHT22;15752;49.560;8.708;2023-04-03T02:51:45;7.90;98.70
28552;DHT22;15752;49.560;8.708;2023-04-03T02:54:14;7.90;98.60
28552;DHT22;15752;49.560;8.708;2023-04-03T02:56:49;7.80;98.50
28552;DHT22;15752;49.560;8.708;2023-04-03T02:59:18;7.80;98.70
28552;DHT22;15752;49.560;8.708;2023-04-03T03:01:47;7.80;98.40
28552;DHT22;15752;49.560;8.708;2023-04-03T03:04:16;8.00;98.50
28552;DHT22;15752;49.560;8.708;2023-04-03T03:06:44;7.80;98.50
28552;DHT22;15752;49.560;8.708;2023-04-03T03:09:13;7.90;98.50
28552;DHT22;15752;49.560;8.708;2023-04-03T03:11:42;7.80;99.00
28552;DHT22;15752;49.560;8.708;2023-04-03T03:14:12;7.70;98.50
28552;DHT22;15752;49.560;8.708;2023-04-03T03:16:40;7.70;98.50
28552;DHT22;15752;49.560;8.708;2023-04-03T03:19:09;7.90;98.50
28552;DHT22;15752;49.560;8.708;2023-04-03T03:21:38;7.70;98.70
28552;DHT22;15752;49.560;8.708;2023-04-03T03:24:07;7.80;98.50
28552;DHT22;15752;49.560;8.708;2023-04-03T03:26:35;7.60;98.80
28552;DHT22;15752;49.560;8.708;2023-04-03T03:29:04;7.60;99.10
28552;DHT22;15752;49.560;8.708;2023-04-03T03:31:34;7.60;98.70
28552;DHT22;15752;49.560;8.708;2023-04-03T03:34:06;7.70;98.80
28552;DHT22;15752;49.560;8.708;2023-04-03T03:36:35;7.70;98.70
28552;DHT22;15752;49.560;8.708;2023-04-03T03:39:03;7.50;98.70
28552;DHT22;15752;49.560;8.708;2023-04-03T03:41:32;7.50;98.80
28552;DHT22;15752;49.560;8.708;2023-04-03T03:44:00;7.60;98.80
28552;DHT22;15752;49.560;8.708;2023-04-03T03:46:31;7.50;98.80
28552;DHT22;15752;49.560;8.708;2023-04-03T03:49:01;7.50;98.80
28552;DHT22;15752;49.560;8.708;2023-04-03T03:51:30;7.40;98.70
28552;DHT22;15752;49.560;8.708;2023-04-03T03:53:59;7.40;98.80
28552;DHT22;15752;49.560;8.708;2023-04-03T03:56:27;7.40;98.80
28552;DHT22;15752;49.560;8.708;2023-04-03T03:58:56;7.40;98.70
28552;DHT22;15752;49.560;8.708;2023-04-03T04:01:25;7.50;99.10
28552;DHT22;15752;49.560;8.708;2023-04-03T04:03:54;7.40;98.80
28552;DHT22;15752;49.560;8.708;2023-04-03T04:06:29;7.30;98.60
28552;DHT22;15752;49.560;8.708;2023-04-03T04:09:01;7.50;98.80
28552;DHT22;15752;49.560;8.708;2023-04-03T04:11:30;7.30;98.70
28552;DHT22;15752;49.560;8.708;2023-04-03T04:14:00;7.40;98.80
28552;DHT22;15752;49.560;8.708;2023-04-03T04:16:29;7.30;98.70
28552;DHT22;15752;49.560;8.708;2023-04-03T04:19:03;7.30;98.80
28552;DHT22;15752;49.560;8.708;2023-04-03T04:21:36;7.20;98.80
28552;DHT22;15752;49.560;8.708;2023-04-03T04:24:06;7.20;98.80
28552;DHT22;15752;49.560;8.708;2023-04-03T04:26:36;7.20;98.80
28552;DHT22;15752;49.560;8.708;2023-04-03T04:29:05;7.20;98.80
28552;DHT22;15752;49.560;8.708;2023-04-03T04:31:35;7.20;98.80
28552;DHT22;15752;49.560;8.708;2023-04-03T04:34:04;7.20;98.90
28552;DHT22;15752;49.560;8.708;2023-04-03T04:36:34;7.20;98.90
28552;DHT22;15752;49.560;8.708;2023-04-03T04:39:04;7.20;98.90
28552;DHT22;15752;49.560;8.708;2023-04-03T04:41:33;7.10;98.90
28552;DHT22;15752;49.560;8.708;2023-04-03T04:44:03;7.10;98.90
28552;DHT22;15752;49.560;8.708;2023-04-03T04:46:32;7.10;98.90
28552;DHT22;15752;49.560;8.708;2023-04-03T04:49:01;7.20;98.90
28552;DHT22;15752;49.560;8.708;2023-04-03T04:51:30;7.20;98.90
28552;DHT22;15752;49.560;8.708;2023-04-03T04:54:12;7.20;98.90
28552;DHT22;15752;49.560;8.708;2023-04-03T04:56:41;7.10;98.90
28552;DHT22;15752;49.560;8.708;2023-04-03T04:59:10;7.00;98.90
28552;DHT22;15752;49.560;8.708;2023-04-03T05:01:38;7.00;98.80
28552;DHT22;15752;49.560;8.708;2023-04-03T05:04:11;7.10;98.90
28552;DHT22;15752;49.560;8.708;2023-04-03T05:06:40;7.20;98.90
28552;DHT22;15752;49.560;8.708;2023-04-03T05:09:15;7.00;98.90
28552;DHT22;15752;49.560;8.708;2023-04-03T05:11:46;7.00;98.80
28552;DHT22;15752;49.560;8.708;2023-04-03T05:14:16;7.10;98.90
28552;DHT22;15752;49.560;8.708;2023-04-03T05:16:46;6.90;98.90
28552;DHT22;15752;49.560;8.708;2023-04-03T05:19:17;7.00;98.80
28552;DHT22;15752;49.560;8.708;2023-04-03T05:21:46;6.90;98.90
28552;DHT22;15752;49.560;8.708;2023-04-03T05:24:17;7.00;98.90
28552;DHT22;15752;49.560;8.708;2023-04-03T05:26:46;7.00;98.90
28552;DHT22;15752;49.560;8.708;2023-04-03T05:29:15;6.90;98.90
28552;DHT22;15752;49.560;8.708;2023-04-03T05:31:44;7.00;98.90
28552;DHT22;15752;49.560;8.708;2023-04-03T05:34:13;6.90;98.90
28552;DHT22;15752;49.560;8.708;2023-04-03T05:36:42;7.00;99.00
28552;DHT22;15752;49.560;8.708;2023-04-03T05:39:12;7.00;98.90
28552;DHT22;15752;49.560;8.708;2023-04-03T05:41:44;6.90;98.80
28552;DHT22;15752;49.560;8.708;2023-04-03T05:44:12;6.80;98.80
28552;DHT22;15752;49.560;8.708;2023-04-03T05:46:43;6.80;98.90
28552;DHT22;15752;49.560;8.708;2023-04-03T05:49:11;6.80;98.90
28552;DHT22;15752;49.560;8.708;2023-04-03T05:51:40;6.80;98.90
28552;DHT22;15752;49.560;8.708;2023-04-03T05:54:23;6.80;98.90
28552;DHT22;15752;49.560;8.708;2023-04-03T05:56:59;6.90;99.00
28552;DHT22;15752;49.560;8.708;2023-04-03T05:59:28;6.90;99.00
28552;DHT22;15752;49.560;8.708;2023-04-03T06:01:58;6.70;98.90
28552;DHT22;15752;49.560;8.708;2023-04-03T06:04:28;6.70;98.90
28552;DHT22;15752;49.560;8.708;2023-04-03T06:06:58;6.90;99.00
28552;DHT22;15752;49.560;8.708;2023-04-03T06:09:28;6.70;98.90
28552;DHT22;15752;49.560;8.708;2023-04-03T06:11:59;6.70;98.90
28552;DHT22;15752;49.560;8.708;2023-04-03T06:14:29;6.70;98.90
28552;DHT22;15752;49.560;8.708;2023-04-03T06:16:57;6.70;98.90
28552;DHT22;15752;49.560;8.708;2023-04-03T06:19:26;6.70;98.90
28552;DHT22;15752;49.560;8.708;2023-04-03T06:21:56;6.70;98.90
28552;DHT22;15752;49.560;8.708;2023-04-03T06:24:25;6.70;99.00
28552;DHT22;15752;49.560;8.708;2023-04-03T06:26:53;6.80;99.00
28552;DHT22;15752;49.560;8.708;2023-04-03T06:29:24;6.70;99.00
28552;DHT22;15752;49.560;8.708;2023-04-03T06:31:52;6.70;99.10
28552;DHT22;15752;49.560;8.708;2023-04-03T06:34:21;6.70;99.10
28552;DHT22;15752;49.560;8.708;2023-04-03T06:36:49;6.70;99.10
28552;DHT22;15752;49.560;8.708;2023-04-03T06:39:20;6.70;99.10
28552;DHT22;15752;49.560;8.708;2023-04-03T06:41:50;6.70;99.20
28552;DHT22;15752;49.560;8.708;2023-04-03T06:44:28;6.70;99.20
28552;DHT22;15752;49.560;8.708;2023-04-03T06:46:56;6.70;99.10
28552;DHT22;15752;49.560;8.708;2023-04-03T06:49:25;6.80;99.20
28552;DHT22;15752;49.560;8.708;2023-04-03T06:51:54;6.70;99.10
28552;DHT22;15752;49.560;8.708;2023-04-03T06:54:23;6.70;99.20
28552;DHT22;15752;49.560;8.708;2023-04-03T06:56:52;6.70;99.20
28552;DHT22;15752;49.560;8.708;2023-04-03T06:59:20;6.80;99.30
28552;DHT22;15752;49.560;8.708;2023-04-03T07:01:50;6.80;99.60
28552;DHT22;15752;49.560;8.708;2023-04-03T07:04:19;6.80;99.80
28552;DHT22;15752;49.560;8.708;2023-04-03T07:06:48;6.80;99.40
28552;DHT22;15752;49.560;8.708;2023-04-03T07:09:17;6.90;99.60
28552;DHT22;15752;49.560;8.708;2023-04-03T07:11:46;6.80;99.60
28552;DHT22;15752;49.560;8.708;2023-04-03T07:14:14;6.90;99.60
28552;DHT22;15752;49.560;8.708;2023-04-03T07:16:42;6.90;99.60
28552;DHT22;15752;49.560;8.708;2023-04-03T07:19:12;7.00;99.60
28552;DHT22;15752;49.560;8.708;2023-04-03T07:21:41;6.90;99.60
28552;DHT22;15752;49.560;8.708;2023-04-03T07:24:10;7.10;99.60
28552;DHT22;15752;49.560;8.708;2023-04-03T07:26:42;7.00;99.60
28552;DHT22;15752;49.560;8.708;2023-04-03T07:29:12;7.00;99.60
28552;DHT22;15752;49.560;8.708;2023-04-03T07:31:40;7.10;99.60
28552;DHT22;15752;49.560;8.708;2023-04-03T07:34:09;7.10;99.70
28552;DHT22;15752;49.560;8.708;2023-04-03T07:36:39;7.10;99.60
28552;DHT22;15752;49.560;8.708;2023-04-03T07:39:07;7.30;99.50
28552;DHT22;15752;49.560;8.708;2023-04-03T07:41:35;7.20;99.40
28552;DHT22;15752;49.560;8.708;2023-04-03T07:44:04;7.30;99.40
28552;DHT22;15752;49.560;8.708;2023-04-03T07:46:36;7.30;99.30
28552;DHT22;15752;49.560;8.708;2023-04-03T07:49:05;7.30;99.30
28552;DHT22;15752;49.560;8.708;2023-04-03T07:51:33;7.30;99.30
28552;DHT22;15752;49.560;8.708;2023-04-03T07:54:03;7.40;99.20
28552;DHT22;15752;49.560;8.708;2023-04-03T07:56:32;7.50;99.10
28552;DHT22;15752;49.560;8.708;2023-04-03T07:59:00;7.50;99.10
28552;DHT22;15752;49.560;8.708;2023-04-03T08:01:28;7.50;99.10
28552;DHT22;15752;49.560;8.708;2023-04-03T08:03:59;7.60;99.10
28552;DHT22;15752;49.560;8.708;2023-04-03T08:06:28;7.80;99.10
28552;DHT22;15752;49.560;8.708;2023-04-03T08:09:13;7.70;99.00
28552;DHT22;15752;49.560;8.708;2023-04-03T08:11:43;7.70;98.80
28552;DHT22;15752;49.560;8.708;2023-04-03T08:14:12;7.90;98.80
28552;DHT22;15752;49.560;8.708;2023-04-03T08:16:44;7.90;98.80
28552;DHT22;15752;49.560;8.708;2023-04-03T08:19:14;7.90;98.80
28552;DHT22;15752;49.560;8.708;2023-04-03T08:21:52;8.00;98.70
28552;DHT22;15752;49.560;8.708;2023-04-03T08:24:23;8.00;98.70
28552;DHT22;15752;49.560;8.708;2023-04-03T08:26:52;8.10;98.60
28552;DHT22;15752;49.560;8.708;2023-04-03T08:29:20;8.30;98.50
28552;DHT22;15752;49.560;8.708;2023-04-03T08:31:49;8.30;98.40
28552;DHT22;15752;49.560;8.708;2023-04-03T08:34:18;8.40;98.30
28552;DHT22;15752;49.560;8.708;2023-04-03T08:36:47;8.30;98.20
28552;DHT22;15752;49.560;8.708;2023-04-03T08:39:17;8.30;98.10
28552;DHT22;15752;49.560;8.708;2023-04-03T08:41:46;8.50;97.90
28552;DHT22;15752;49.560;8.708;2023-04-03T08:44:20;8.40;98.00
28552;DHT22;15752;49.560;8.708;2023-04-03T08:47:09;8.50;97.80
28552;DHT22;15752;49.560;8.708;2023-04-03T08:49:42;8.60;97.70
28552;DHT22;15752;49.560;8.708;2023-04-03T08:52:17;8.60;97.80
28552;DHT22;15752;49.560;8.708;2023-04-03T08:54:51;8.70;97.70
28552;DHT22;15752;49.560;8.708;2023-04-03T08:57:29;8.70;97.60
28552;DHT22;15752;49.560;8.708;2023-04-03T09:00:15;8.80;97.40
28552;DHT22;15752;49.560;8.708;2023-04-03T09:02:47;8.80;97.50
28552;DHT22;15752;49.560;8.708;2023-04-03T09:05:18;8.90;97.50
28552;DHT22;15752;49.560;8.708;2023-04-03T09:07:53;9.00;97.50
28552;DHT22;15752;49.560;8.708;2023-04-03T09:10:27;9.20;97.30
28552;DHT22;15752;49.560;8.708;2023-04-03T09:13:05;9.10;97.00
28552;DHT22;15752;49.560;8.708;2023-04-03T09:15:35;9.20;96.80
28552;DHT22;15752;49.560;8.708;2023-04-03T09:18:12;9.20;96.80
28552;DHT22;15752;49.560;8.708;2023-04-03T09:20:48;9.20;96.30
28552;DHT22;15752;49.560;8.708;2023-04-03T09:23:24;9.30;96.80
28552;DHT22;15752;49.560;8.708;2023-04-03T09:26:01;9.50;96.50
28552;DHT22;15752;49.560;8.708;2023-04-03T09:28:35;9.30;96.40
28552;DHT22;15752;49.560;8.708;2023-04-03T09:31:20;9.50;96.10
28552;DHT22;15752;49.560;8.708;2023-04-03T09:33:53;9.40;96.00
28552;DHT22;15752;49.560;8.708;2023-04-03T09:36:38;9.50;96.40
28552;DHT22;15752;49.560;8.708;2023-04-03T09:39:12;9.60;95.90
28552;DHT22;15752;49.560;8.708;2023-04-03T09:41:43;9.60;96.00
28552;DHT22;15752;49.560;8.708;2023-04-03T09:44:26;9.50;96.20
28552;DHT22;15752;49.560;8.708;2023-04-03T09:46:55;9.70;96.10
28552;DHT22;15752;49.560;8.708;2023-04-03T09:49:24;9.70;96.00
28552;DHT22;15752;49.560;8.708;2023-04-03T09:51:52;9.80;95.80
28552;DHT22;15752;49.560;8.708;2023-04-03T09:54:30;9.80;95.60
28552;DHT22;15752;49.560;8.708;2023-04-03T09:57:10;9.80;95.60
28552;DHT22;15752;49.560;8.708;2023-04-03T09:59:45;9.90;95.50
28552;DHT22;15752;49.560;8.708;2023-04-03T10:02:30;10.00;95.40
28552;DHT22;15752;49.560;8.708;2023-04-03T10:05:03;10.00;95.10
28552;DHT22;15752;49.560;8.708;2023-04-03T10:07:38;10.00;95.40
28552;DHT22;15752;49.560;8.708;2023-04-03T10:10:20;10.10;95.40
28552;DHT22;15752;49.560;8.708;2023-04-03T10:13:04;10.20;94.90
28552;DHT22;15752;49.560;8.708;2023-04-03T10:15:43;10.10;94.70
28552;DHT22;15752;49.560;8.708;2023-04-03T10:18:28;10.10;94.80
28552;DHT22;15752;49.560;8.708;2023-04-03T10:21:05;10.10;94.40
28552;DHT22;15752;49.560;8.708;2023-04-03T10:23:52;10.10;94.60
28552;DHT22;15752;49.560;8.708;2023-04-03T10:26:32;10.10;94.50
28552;DHT22;15752;49.560;8.708;2023-04-03T10:29:10;10.10;94.50
28552;DHT22;15752;49.560;8.708;2023-04-03T10:31:55;10.10;94.60
28552;DHT22;15752;49.560;8.708;2023-04-03T10:34:31;10.20;94.40
28552;DHT22;15752;49.560;8.708;2023-04-03T10:37:10;10.10;94.50
28552;DHT22;15752;49.560;8.708;2023-04-03T10:39:49;10.20;94.50
28552;DHT22;15752;49.560;8.708;2023-04-03T10:42:27;10.20;94.50
28552;DHT22;15752;49.560;8.708;2023-04-03T10:45:08;10.30;94.30
28552;DHT22;15752;49.560;8.708;2023-04-03T10:47:56;10.20;94.40
28552;DHT22;15752;49.560;8.708;2023-04-03T10:50:38;10.30;94.40
28552;DHT22;15752;49.560;8.708;2023-04-03T10:53:16;10.30;94.30
28552;DHT22;15752;49.560;8.708;2023-04-03T10:55:52;10.30;94.40
28552;DHT22;15752;49.560;8.708;2023-04-03T10:58:29;10.30;94.40
28552;DHT22;15752;49.560;8.708;2023-04-03T11:01:02;10.30;94.20
28552;DHT22;15752;49.560;8.708;2023-04-03T11:03:39;10.30;94.40
28552;DHT22;15752;49.560;8.708;2023-04-03T11:06:11;10.30;94.40
28552;DHT22;15752;49.560;8.708;2023-04-03T11:08:45;10.30;94.60
28552;DHT22;15752;49.560;8.708;2023-04-03T11:11:17;10.30;94.40
28552;DHT22;15752;49.560;8.708;2023-04-03T11:13:52;10.40;94.50
28552;DHT22;15752;49.560;8.708;2023-04-03T11:16:27;10.40;94.50
28552;DHT22;15752;49.560;8.708;2023-04-03T11:19:03;10.60;94.60
28552;DHT22;15752;49.560;8.708;2023-04-03T11:21:39;10.50;94.20
28552;DHT22;15752;49.560;8.708;2023-04-03T11:24:16;10.50;94.00
28552;DHT22;15752;49.560;8.708;2023-04-03T11:26:50;10.50;93.60
28552;DHT22;15752;49.560;8.708;2023-04-03T11:29:23;10.50;94.00
28552;DHT22;15752;49.560;8.708;2023-04-03T11:32:10;10.60;93.80
28552;DHT22;15752;49.560;8.708;2023-04-03T11:34:52;10.60;93.70
28552;DHT22;15752;49.560;8.708;2023-04-03T11:37:29;10.60;94.00
28552;DHT22;15752;49.560;8.708;2023-04-03T11:40:02;10.50;94.20
28552;DHT22;15752;49.560;8.708;2023-04-03T11:42:38;10.60;94.10
28552;DHT22;15752;49.560;8.708;2023-04-03T11:45:31;10.60;93.70
28552;DHT22;15752;49.560;8.708;2023-04-03T11:48:05;10.60;93.70
28552;DHT22;15752;49.560;8.708;2023-04-03T11:50:50;10.60;93.80
28552;DHT22;15752;49.560;8.708;2023-04-03T11:53:31;10.60;93.80
28552;DHT22;15752;49.560;8.708;2023-04-03T11:56:29;10.60;93.60
28552;DHT22;15752;49.560;8.708;2023-04-03T11:59:29;10.60;93.80
28552;DHT22;15752;49.560;8.708;2023-04-03T12:02:34;10.80;93.80
28552;DHT22;15752;49.560;8.708;2023-04-03T12:05:27;10.70;93.80
28552;DHT22;15752;49.560;8.708;2023-04-03T12:08:25;10.70;93.80
28552;DHT22;15752;49.560;8.708;2023-04-03T12:11:14;10.70;93.80
28552;DHT22;15752;49.560;8.708;2023-04-03T12:14:03;10.70;93.40
28552;DHT22;15752;49.560;8.708;2023-04-03T12:16:40;10.70;93.60
28552;DHT22;15752;49.560;8.708;2023-04-03T12:19:30;10.90;93.90
28552;DHT22;15752;49.560;8.708;2023-04-03T12:22:16;10.70;93.80
28552;DHT22;15752;49.560;8.708;2023-04-03T12:24:50;10.70;93.50
28552;DHT22;15752;49.560;8.708;2023-04-03T12:27:28;10.70;93.80
28552;DHT22;15752;49.560;8.708;2023-04-03T12:30:14;10.80;93.30
28552;DHT22;15752;49.560;8.708;2023-04-03T12:33:20;10.80;93.00
28552;DHT22;15752;49.560;8.708;2023-04-03T12:36:03;10.80;93.10
28552;DHT22;15752;49.560;8.708;2023-04-03T12:38:49;10.90;93.20
28552;DHT22;15752;49.560;8.708;2023-04-03T12:41:35;10.90;93.20
28552;DHT22;15752;49.560;8.708;2023-04-03T12:44:25;10.90;93.20
28552;DHT22;15752;49.560;8.708;2023-04-03T12:47:00;11.00;93.20
28552;DHT22;15752;49.560;8.708;2023-04-03T12:49:35;11.00;93.10
28552;DHT22;15752;49.560;8.708;2023-04-03T12:52:18;11.00;92.60
28552;DHT22;15752;49.560;8.708;2023-04-03T12:54:51;11.10;92.70
28552;DHT22;15752;49.560;8.708;2023-04-03T12:57:23;11.10;92.70
28552;DHT22;15752;49.560;8.708;2023-04-03T12:59:54;11.10;92.50
28552;DHT22;15752;49.560;8.708;2023-04-03T13:02:25;11.10;92.50
28552;DHT22;15752;49.560;8.708;2023-04-03T13:04:56;11.10;92.10
28552;DHT22;15752;49.560;8.708;2023-04-03T13:07:29;11.10;92.20
28552;DHT22;15752;49.560;8.708;2023-04-03T13:10:14;11.10;92.20
28552;DHT22;15752;49.560;8.708;2023-04-03T13:12:52;11.10;91.90
28552;DHT22;15752;49.560;8.708;2023-04-03T13:15:22;11.20;92.00
28552;DHT22;15752;49.560;8.708;2023-04-03T13:17:53;11.20;92.50
28552;DHT22;15752;49.560;8.708;2023-04-03T13:20:25;11.20;92.10
28552;DHT22;15752;49.560;8.708;2023-04-03T13:22:57;11.20;92.10
28552;DHT22;15752;49.560;8.708;2023-04-03T13:25:29;11.10;91.80
28552;DHT22;15752;49.560;8.708;2023-04-03T13:28:04;11.10;91.50
28552;DHT22;15752;49.560;8.708;2023-04-03T13:30:41;11.20;91.20
28552;DHT22;15752;49.560;8.708;2023-04-03T13:33:26;11.10;91.90
28552;DHT22;15752;49.560;8.708;2023-04-03T13:35:57;11.20;91.50
28552;DHT22;15752;49.560;8.708;2023-04-03T13:38:30;11.20;91.60
28552;DHT22;15752;49.560;8.708;2023-04-03T13:41:03;11.20;91.70
28552;DHT22;15752;49.560;8.708;2023-04-03T13:43:36;11.20;91.70
28552;DHT22;15752;49.560;8.708;2023-04-03T13:46:24;11.30;91.30
28552;DHT22;15752;49.560;8.708;2023-04-03T13:48:56;11.30;91.30
28552;DHT22;15752;49.560;8.708;2023-04-03T13:51:26;11.40;91.20
28552;DHT22;15752;49.560;8.708;2023-04-03T13:53:57;11.30;90.90
28552;DHT22;15752;49.560;8.708;2023-04-03T13:56:32;11.30;90.90
28552;DHT22;15752;49.560;8.708;2023-04-03T13:59:22;11.30;90.70
28552;DHT22;15752;49.560;8.708;2023-04-03T14:01:54;11.30;90.30
28552;DHT22;15752;49.560;8.708;2023-04-03T14:04:25;11.40;90.60
28552;DHT22;15752;49.560;8.708;2023-04-03T14:06:55;11.30;90.30
28552;DHT22;15752;49.560;8.708;2023-04-03T14:09:26;11.30;90.50
28552;DHT22;15752;49.560;8.708;2023-04-03T14:11:58;11.30;90.30
28552;DHT22;15752;49.560;8.708;2023-04-03T14:14:35;11.30;90.00
28552;DHT22;15752;49.560;8.708;2023-04-03T14:17:14;11.30;90.00
28552;DHT22;15752;49.560;8.708;2023-04-03T14:19:52;11.30;89.50
28552;DHT22;15752;49.560;8.708;2023-04-03T14:22:23;11.30;90.20
28552;DHT22;15752;49.560;8.708;2023-04-03T14:24:53;11.30;90.10
28552;DHT22;15752;49.560;8.708;2023-04-03T14:27:25;11.50;90.40
28552;DHT22;15752;49.560;8.708;2023-04-03T14:29:58;11.30;90.30
28552;DHT22;15752;49.560;8.708;2023-04-03T14:32:27;11.30;89.10
28552;DHT22;15752;49.560;8.708;2023-04-03T14:34:56;11.30;89.50
28552;DHT22;15752;49.560;8.708;2023-04-03T14:37:27;11.40;89.60
28552;DHT22;15752;49.560;8.708;2023-04-03T14:39:58;11.30;89.40
28552;DHT22;15752;49.560;8.708;2023-04-03T14:42:30;11.30;89.40
28552;DHT22;15752;49.560;8.708;2023-04-03T14:45:03;11.30;88.70
28552;DHT22;15752;49.560;8.708;2023-04-03T14:47:37;11.30;88.10
28552;DHT22;15752;49.560;8.708;2023-04-03T14:50:14;11.30;88.70
28552;DHT22;15752;49.560;8.708;2023-04-03T14:52:44;11.30;88.60
28552;DHT22;15752;49.560;8.708;2023-04-03T14:55:15;11.30;88.80
28552;DHT22;15752;49.560;8.708;2023-04-03T14:57:46;11.30;88.60
28552;DHT22;15752;49.560;8.708;2023-04-03T15:00:20;11.40;88.40
28552;DHT22;15752;49.560;8.708;2023-04-03T15:02:49;11.30;87.40
28552;DHT22;15752;49.560;8.708;2023-04-03T15:05:18;11.40;88.00
28552;DHT22;15752;49.560;8.708;2023-04-03T15:07:49;11.30;88.50
28552;DHT22;15752;49.560;8.708;2023-04-03T15:10:21;11.40;87.90
28552;DHT22;15752;49.560;8.708;2023-04-03T15:12:52;11.30;87.90
28552;DHT22;15752;49.560;8.708;2023-04-03T15:15:23;11.30;88.20
28552;DHT22;15752;49.560;8.708;2023-04-03T15:17:54;11.30;87.50
28552;DHT22;15752;49.560;8.708;2023-04-03T15:20:26;11.30;87.90
28552;DHT22;15752;49.560;8.708;2023-04-03T15:22:57;11.30;88.10
28552;DHT22;15752;49.560;8.708;2023-04-03T15:25:27;11.30;87.40
28552;DHT22;15752;49.560;8.708;2023-04-03T15:27:56;11.30;87.90
28552;DHT22;15752;49.560;8.708;2023-04-03T15:30:27;11.30;87.70
28552;DHT22;15752;49.560;8.708;2023-04-03T15:32:55;11.30;84.90
28552;DHT22;15752;49.560;8.708;2023-04-03T15:35:24;11.30;85.50
28552;DHT22;15752;49.560;8.708;2023-04-03T15:37:52;11.30;86.90
28552;DHT22;15752;49.560;8.708;2023-04-03T15:40:20;11.30;86.70
28552;DHT22;15752;49.560;8.708;2023-04-03T15:42:49;11.30;86.00
28552;DHT22;15752;49.560;8.708;2023-04-03T15:45:20;11.30;86.30
28552;DHT22;15752;49.560;8.708;2023-04-03T15:47:50;11.30;86.80
28552;DHT22;15752;49.560;8.708;2023-04-03T15:50:19;11.40;86.60
28552;DHT22;15752;49.560;8.708;2023-04-03T15:52:49;11.20;86.40
28552;DHT22;15752;49.560;8.708;2023-04-03T15:55:21;11.30;86.50
28552;DHT22;15752;49.560;8.708;2023-04-03T15:57:49;11.30;86.70
28552;DHT22;15752;49.560;8.708;2023-04-03T16:00:19;11.20;85.70
28552;DHT22;15752;49.560;8.708;2023-04-03T16:02:55;11.20;85.90
28552;DHT22;15752;49.560;8.708;2023-04-03T16:05:26;11.20;85.10
28552;DHT22;15752;49.560;8.708;2023-04-03T16:07:54;11.20;85.70
28552;DHT22;15752;49.560;8.708;2023-04-03T16:10:23;11.20;85.20
28552;DHT22;15752;49.560;8.708;2023-04-03T16:12:52;11.30;85.20
28552;DHT22;15752;49.560;8.708;2023-04-03T16:15:21;11.10;84.80